createdAt,value
2023-05-19T00:00:25.613Z,96304.00
2023-05-19T00:03:13.115Z,96304.00
2023-05-19T00:06:02.749Z,96305.00
2023-05-19T00:08:50.295Z,96303.00
2023-05-19T00:11:38.641Z,96306.00
2023-05-19T00:14:24.824Z,96312.00
2023-05-19T00:17:11.003Z,96296.00
2023-05-19T00:19:57.239Z,96299.00
2023-05-19T00:22:44.903Z,96299.00
2023-05-19T00:25:30.720Z,96296.00
2023-05-19T00:28:17.632Z,96285.00
2023-05-19T00:31:05.406Z,96289.00
2023-05-19T00:33:52.540Z,96285.00
2023-05-19T00:36:38.568Z,96288.00
2023-05-19T00:39:24.824Z,96288.00
2023-05-19T00:42:11.557Z,96286.00
2023-05-19T00:44:57.546Z,96288.00
2023-05-19T00:47:43.900Z,96288.00
2023-05-19T00:51:02.747Z,96279.00
2023-05-19T00:53:51.438Z,96273.00
2023-05-19T00:56:37.249Z,96276.00
2023-05-19T00:59:22.803Z,96265.00
2023-05-19T01:02:09.300Z,96260.00
2023-05-19T01:04:57.178Z,96259.00
2023-05-19T01:07:43.168Z,96259.00
2023-05-19T01:10:30.347Z,96259.00
2023-05-19T01:13:16.972Z,96261.00
2023-05-19T01:16:16.557Z,96269.00
2023-05-19T01:19:27.902Z,96262.00
2023-05-19T01:22:55.240Z,96263.00
2023-05-19T01:26:04.695Z,96255.00
2023-05-19T01:28:53.407Z,96266.00
2023-05-19T01:31:41.646Z,96259.00
2023-05-19T01:34:28.430Z,96271.00
2023-05-19T01:37:16.611Z,96272.00
2023-05-19T01:40:02.988Z,96269.00
2023-05-19T01:42:51.464Z,96265.00
2023-05-19T01:45:37.994Z,96269.00
2023-05-19T01:48:23.902Z,96267.00
2023-05-19T01:51:10.479Z,96270.00
2023-05-19T01:53:56.790Z,96266.00
2023-05-19T01:56:55.275Z,96270.00
2023-05-19T02:00:21.314Z,96268.00
2023-05-19T02:03:35.032Z,96264.00
2023-05-19T02:07:04.150Z,96272.00
2023-05-19T02:10:24.258Z,96271.00
2023-05-19T02:13:14.098Z,96266.00
2023-05-19T02:16:05.669Z,96265.00
2023-05-19T02:18:52.348Z,96260.00
2023-05-19T02:21:37.913Z,96257.00
2023-05-19T02:24:24.956Z,96255.00
2023-05-19T02:27:10.837Z,96257.00
2023-05-19T02:29:56.561Z,96254.00
2023-05-19T02:32:46.789Z,96260.00
2023-05-19T02:35:33.671Z,96247.00
2023-05-19T02:38:20.278Z,96244.00
2023-05-19T02:41:06.268Z,96251.00
2023-05-19T02:43:52.300Z,96252.00
2023-05-19T02:46:38.133Z,96244.00
2023-05-19T02:49:24.215Z,96248.00
2023-05-19T02:52:10.185Z,96251.00
2023-05-19T02:54:56.716Z,96246.00
2023-05-19T02:57:44.026Z,96245.00
2023-05-19T03:00:30.399Z,96250.00
2023-05-19T03:03:17.288Z,96244.00
2023-05-19T03:06:04.219Z,96230.00
2023-05-19T03:08:50.958Z,96238.00
2023-05-19T03:11:37.297Z,96242.00
2023-05-19T03:14:24.509Z,96242.00
2023-05-19T03:17:11.578Z,96231.00
2023-05-19T03:19:57.528Z,96234.00
2023-05-19T03:22:44.050Z,96222.00
2023-05-19T03:25:30.425Z,96232.00
2023-05-19T03:28:17.562Z,96240.00
2023-05-19T03:31:03.705Z,96233.00
2023-05-19T03:33:55.156Z,96236.00
2023-05-19T03:36:44.537Z,96240.00
2023-05-19T03:39:34.652Z,96241.00
2023-05-19T03:42:20.646Z,96238.00
2023-05-19T03:45:07.497Z,96230.00
2023-05-19T03:47:54.179Z,96230.00
2023-05-19T03:50:51.215Z,96229.00
2023-05-19T03:53:42.672Z,96234.00
2023-05-19T03:56:28.994Z,96235.00
2023-05-19T03:59:16.192Z,96238.00
2023-05-19T04:02:09.559Z,96231.00
2023-05-19T04:04:56.159Z,96241.00
2023-05-19T04:07:43.148Z,96239.00
2023-05-19T04:10:29.254Z,96238.00
2023-05-19T04:13:15.300Z,96240.00
2023-05-19T04:16:01.787Z,96239.00
2023-05-19T04:18:47.783Z,96237.00
2023-05-19T04:21:33.995Z,96235.00
2023-05-19T04:24:19.785Z,96229.00
2023-05-19T04:27:11.819Z,96229.00
2023-05-19T04:29:58.517Z,96228.00
2023-05-19T04:32:45.363Z,96239.00
2023-05-19T04:35:31.424Z,96229.00
2023-05-19T04:38:20.366Z,96232.00
2023-05-19T04:41:11.093Z,96232.00
2023-05-19T04:43:58.640Z,96223.00
2023-05-19T04:46:45.641Z,96221.00
2023-05-19T04:49:32.858Z,96228.00
2023-05-19T04:52:21.872Z,96244.00
2023-05-19T04:55:08.490Z,96233.00
2023-05-19T04:57:55.125Z,96233.00
2023-05-19T05:00:41.590Z,96232.00
2023-05-19T05:03:28.171Z,96239.00
2023-05-19T05:06:15.753Z,96231.00
2023-05-19T05:09:01.623Z,96234.00
2023-05-19T05:11:48.095Z,96239.00
2023-05-19T05:14:35.112Z,96229.00
2023-05-19T05:17:21.630Z,96238.00
2023-05-19T05:20:08.367Z,96236.00
2023-05-19T05:22:54.446Z,96237.00
2023-05-19T05:25:47.392Z,96234.00
2023-05-19T05:28:34.770Z,96234.00
2023-05-19T05:31:21.529Z,96228.00
2023-05-19T05:34:07.464Z,96227.00
2023-05-19T05:36:53.233Z,96228.00
2023-05-19T05:39:39.820Z,96222.00
2023-05-19T05:42:26.665Z,96232.00
2023-05-19T05:45:14.476Z,96236.00
2023-05-19T05:48:01.055Z,96229.00
2023-05-19T05:50:48.534Z,96232.00
2023-05-19T05:53:44.930Z,96232.00
2023-05-19T05:56:33.872Z,96235.00
2023-05-19T05:59:20.547Z,96237.00
2023-05-19T06:02:07.251Z,96240.00
2023-05-19T06:04:54.857Z,96235.00
2023-05-19T06:07:41.689Z,96238.00
2023-05-19T06:10:32.557Z,96238.00
2023-05-19T06:13:22.586Z,96231.00
2023-05-19T06:16:09.265Z,96239.00
2023-05-19T06:19:01.499Z,96231.00
2023-05-19T06:21:47.212Z,96236.00
2023-05-19T06:24:33.955Z,96235.00
2023-05-19T06:27:19.682Z,96235.00
2023-05-19T06:30:08.744Z,96231.00
2023-05-19T06:33:06.227Z,96236.00
2023-05-19T06:36:05.681Z,96244.00
2023-05-19T06:39:37.260Z,96236.00
2023-05-19T06:42:16.893Z,96240.00
2023-05-19T06:45:23.915Z,96243.00
2023-05-19T06:48:10.705Z,96245.00
2023-05-19T06:50:57.073Z,96245.00
2023-05-19T06:53:43.467Z,96242.00
2023-05-19T06:56:31.043Z,96245.00
2023-05-19T06:59:17.600Z,96239.00
2023-05-19T07:02:04.899Z,96243.00
2023-05-19T07:04:52.797Z,96229.00
2023-05-19T07:07:41.880Z,96230.00
2023-05-19T07:10:31.959Z,96235.00
2023-05-19T07:13:18.694Z,96228.00
2023-05-19T07:16:10.871Z,96233.00
2023-05-19T07:18:57.529Z,96227.00
2023-05-19T07:21:43.898Z,96220.00
2023-05-19T07:24:30.782Z,96222.00
2023-05-19T07:27:56.652Z,96218.00
2023-05-19T07:32:00.061Z,96209.00
2023-05-19T07:35:19.501Z,96215.00
2023-05-19T07:39:18.020Z,96234.00
2023-05-19T07:42:31.602Z,96215.00
2023-05-19T07:49:01.451Z,96203.00
2023-05-19T07:51:53.930Z,96208.00
2023-05-19T07:54:43.288Z,96204.00
2023-05-19T07:58:14.871Z,96206.00
2023-05-19T08:01:22.351Z,96191.00
2023-05-19T08:04:26.960Z,96208.00
2023-05-19T08:07:30.804Z,96198.00
2023-05-19T08:10:37.697Z,96205.00
2023-05-19T08:13:44.897Z,96193.00
2023-05-19T08:20:06.793Z,96195.00
2023-05-19T08:23:36.712Z,96197.00
2023-05-19T08:26:53.063Z,96195.00
2023-05-19T08:29:46.284Z,96207.00
2023-05-19T08:32:41.858Z,96201.00
2023-05-19T08:35:31.620Z,96205.00
2023-05-19T08:38:28.041Z,96200.00
2023-05-19T08:41:26.244Z,96191.00
2023-05-19T08:44:19.925Z,96193.00
2023-05-19T08:47:24.444Z,96188.00
2023-05-19T08:50:25.131Z,96202.00
2023-05-19T08:53:34.659Z,96185.00
2023-05-19T08:56:31.691Z,96189.00
2023-05-19T08:59:27.557Z,96175.00
2023-05-19T09:02:35.298Z,96184.00
2023-05-19T09:08:34.765Z,96186.00
2023-05-19T09:11:34.147Z,96186.00
2023-05-19T09:14:35.058Z,96183.00
2023-05-19T09:17:57.868Z,96198.00
2023-05-19T09:20:55.557Z,96183.00
2023-05-19T09:24:16.595Z,96186.00
2023-05-19T09:28:01.433Z,96190.00
2023-05-19T09:31:26.216Z,96183.00
2023-05-19T09:34:42.230Z,96184.00
2023-05-19T09:38:33.462Z,96171.00
2023-05-19T09:41:40.616Z,96180.00
2023-05-19T09:44:40.626Z,96180.00
2023-05-19T09:48:24.002Z,96179.00
2023-05-19T09:51:51.830Z,96168.00
2023-05-19T09:59:33.337Z,96176.00
2023-05-19T10:03:10.014Z,96186.00
2023-05-19T10:06:10.196Z,96174.00
2023-05-19T10:09:33.835Z,96173.00
2023-05-19T10:12:56.798Z,96173.00
2023-05-19T10:16:16.920Z,96165.00
2023-05-19T10:19:28.367Z,96168.00
2023-05-19T10:22:51.908Z,96161.00
2023-05-19T10:26:24.933Z,96160.00
2023-05-19T10:30:29.905Z,96171.00
2023-05-19T10:34:08.514Z,96165.00
2023-05-19T10:37:35.614Z,96169.00
2023-05-19T10:41:46.956Z,96178.00
2023-05-19T10:46:29.725Z,96180.00
2023-05-19T10:50:12.854Z,96180.00
2023-05-19T10:53:36.367Z,96182.00
2023-05-19T10:56:48.607Z,96173.00
2023-05-19T11:03:48.355Z,96172.00
2023-05-19T11:07:10.665Z,96170.00
2023-05-19T11:10:14.021Z,96172.00
2023-05-19T11:13:56.379Z,96178.00
2023-05-19T11:17:55.752Z,96178.00
2023-05-19T11:20:47.685Z,96179.00
2023-05-19T11:24:15.643Z,96175.00
2023-05-19T11:34:46.013Z,96170.00
2023-05-19T11:38:49.474Z,96170.00
2023-05-19T11:42:47.910Z,96168.00
2023-05-19T11:54:30.556Z,96178.00
2023-05-19T11:57:44.704Z,96168.00
2023-05-19T12:03:52.840Z,96168.00
2023-05-19T12:07:04.200Z,96181.00
2023-05-19T12:10:22.628Z,96176.00
2023-05-19T12:13:37.116Z,96185.00
2023-05-19T12:16:35.900Z,96187.00
2023-05-19T12:19:30.850Z,96188.00
2023-05-19T12:22:24.836Z,96174.00
2023-05-19T12:25:33.424Z,96170.00
2023-05-19T12:28:46.276Z,96157.00
2023-05-19T12:31:45.721Z,96166.00
2023-05-19T12:35:01.065Z,96169.00
2023-05-19T12:38:32.365Z,96167.00
2023-05-19T12:41:42.612Z,96167.00
2023-05-19T12:44:35.106Z,96163.00
2023-05-19T12:51:58.329Z,96166.00
2023-05-19T12:55:41.335Z,96161.00
2023-05-19T12:58:57.994Z,96166.00
2023-05-19T13:01:46.623Z,96166.00
2023-05-19T13:04:33.059Z,96162.00
2023-05-19T13:07:21.808Z,96165.00
2023-05-19T13:10:08.510Z,96175.00
2023-05-19T13:13:00.655Z,96160.00
2023-05-19T13:15:50.917Z,96161.00
2023-05-19T13:18:37.853Z,96148.00
2023-05-19T13:21:25.130Z,96161.00
2023-05-19T13:24:11.137Z,96156.00
2023-05-19T13:26:57.480Z,96159.00
2023-05-19T13:29:43.599Z,96155.00
2023-05-19T13:32:29.657Z,96142.00
2023-05-19T13:35:16.966Z,96144.00
2023-05-19T13:38:12.145Z,96127.00
2023-05-19T13:44:54.488Z,96141.00
2023-05-19T13:47:55.069Z,96137.00
2023-05-19T13:50:48.404Z,96144.00
2023-05-19T13:53:36.484Z,96146.00
2023-05-19T13:56:22.512Z,96154.00
2023-05-19T13:59:28.312Z,96145.00
2023-05-19T14:02:26.983Z,96143.00
2023-05-19T14:05:21.422Z,96148.00
2023-05-19T14:08:13.869Z,96143.00
2023-05-19T14:10:59.868Z,96137.00
2023-05-19T14:13:52.851Z,96137.00
2023-05-19T14:16:40.797Z,96146.00
2023-05-19T14:19:30.563Z,96143.00
2023-05-19T14:22:34.422Z,96131.00
2023-05-19T14:25:28.660Z,96135.00
2023-05-19T14:28:18.287Z,96136.00
2023-05-19T14:31:07.354Z,96139.00
2023-05-19T14:34:04.161Z,96120.00
2023-05-19T14:36:58.634Z,96124.00
2023-05-19T14:39:55.322Z,96125.00
2023-05-19T14:42:47.257Z,96123.00
2023-05-19T14:45:38.462Z,96118.00
2023-05-19T14:48:27.439Z,96117.00
2023-05-19T14:51:13.453Z,96127.00
2023-05-19T14:54:01.337Z,96122.00
2023-05-19T14:56:58.105Z,96122.00
2023-05-19T14:59:43.885Z,96110.00
2023-05-19T15:02:41.895Z,96111.00
2023-05-19T15:05:57.527Z,96122.00
2023-05-19T15:09:21.411Z,96102.00
2023-05-19T15:12:21.744Z,96117.00
2023-05-19T15:15:13.710Z,96114.00
2023-05-19T15:17:59.833Z,96118.00
2023-05-19T15:20:48.716Z,96108.00
2023-05-19T15:23:43.050Z,96103.00
2023-05-19T15:26:32.584Z,96115.00
2023-05-19T15:29:21.357Z,96116.00
2023-05-19T15:32:11.464Z,96111.00
2023-05-19T15:34:58.584Z,96115.00
2023-05-19T15:37:53.048Z,96110.00
2023-05-19T15:40:44.776Z,96111.00
2023-05-19T15:43:53.754Z,96103.00
2023-05-19T15:46:51.504Z,96093.00
2023-05-19T15:50:30.283Z,96097.00
2023-05-19T15:53:30.077Z,96092.00
2023-05-19T15:56:41.022Z,96084.00
2023-05-19T15:59:38.373Z,96085.00
2023-05-19T16:02:40.420Z,96087.00
2023-05-19T16:05:57.463Z,96087.00
2023-05-19T16:09:04.767Z,96073.00
2023-05-19T16:12:06.993Z,96081.00
2023-05-19T16:15:22.646Z,96074.00
2023-05-19T16:18:17.055Z,96066.00
2023-05-19T16:21:45.130Z,96062.00
2023-05-19T16:25:10.742Z,96063.00
2023-05-19T16:28:05.917Z,96052.00
2023-05-19T16:31:00.207Z,96074.00
2023-05-19T16:34:06.018Z,96061.00
2023-05-19T16:37:10.202Z,96061.00
2023-05-19T16:40:23.701Z,96064.00
2023-05-19T16:43:19.339Z,96060.00
2023-05-19T16:46:29.204Z,96062.00
2023-05-19T16:49:35.703Z,96061.00
2023-05-19T16:52:42.371Z,96058.00
2023-05-19T16:55:36.015Z,96056.00
2023-05-19T16:58:28.982Z,96048.00
2023-05-19T17:01:17.530Z,96053.00
2023-05-19T17:04:03.786Z,96043.00
2023-05-19T17:11:33.894Z,96051.00
2023-05-19T17:14:24.814Z,96038.00
2023-05-19T17:17:10.897Z,96039.00
2023-05-19T17:20:00.317Z,96044.00
2023-05-19T17:22:46.176Z,96039.00
2023-05-19T17:25:33.789Z,96034.00
2023-05-19T17:28:19.412Z,96049.00
2023-05-19T17:31:15.904Z,96045.00
2023-05-19T17:34:01.841Z,96043.00
2023-05-19T17:36:49.989Z,96047.00
2023-05-19T17:39:35.951Z,96040.00
2023-05-19T17:42:21.789Z,96038.00
2023-05-19T17:45:12.181Z,96037.00
2023-05-19T17:47:57.989Z,96038.00
2023-05-19T17:50:47.988Z,96036.00
2023-05-19T17:53:34.813Z,96041.00
2023-05-19T17:56:24.302Z,96034.00
2023-05-19T17:59:11.233Z,96025.00
2023-05-19T18:01:57.983Z,96027.00
2023-05-19T18:04:44.464Z,96023.00
2023-05-19T18:07:32.943Z,96024.00
2023-05-19T18:10:19.131Z,96031.00
2023-05-19T18:13:06.330Z,96023.00
2023-05-19T18:15:52.968Z,96019.00
2023-05-19T18:18:43.585Z,96023.00
2023-05-19T18:21:31.007Z,96023.00
2023-05-19T18:24:16.542Z,96026.00
2023-05-19T18:27:03.713Z,96014.00
2023-05-19T18:29:49.450Z,96021.00
2023-05-19T18:32:35.089Z,96019.00
2023-05-19T18:35:21.459Z,96024.00
2023-05-19T18:38:10.232Z,96014.00
2023-05-19T18:40:57.094Z,96012.00
2023-05-19T18:43:45.458Z,96011.00
2023-05-19T18:46:33.894Z,96023.00
2023-05-19T18:49:20.007Z,96010.00
2023-05-19T18:52:09.859Z,96012.00
2023-05-19T18:54:56.015Z,96012.00
2023-05-19T18:57:42.111Z,96018.00
2023-05-19T19:00:28.606Z,96026.00
2023-05-19T19:03:14.849Z,96021.00
2023-05-19T19:06:01.096Z,96016.00
2023-05-19T19:09:08.238Z,96013.00
2023-05-19T19:12:20.576Z,96016.00
2023-05-19T19:15:21.186Z,96023.00
2023-05-19T19:18:38.669Z,96022.00
2023-05-19T19:21:36.951Z,96023.00
2023-05-19T19:24:29.114Z,96020.00
2023-05-19T19:27:25.608Z,96030.00
2023-05-19T19:30:12.000Z,96032.00
2023-05-19T19:33:08.222Z,96029.00
2023-05-19T19:39:06.775Z,96030.00
2023-05-19T19:39:21.964Z,96028.00
2023-05-19T19:42:09.929Z,96034.00
2023-05-19T19:45:34.955Z,96037.00
2023-05-19T19:48:44.485Z,96038.00
2023-05-19T19:51:36.595Z,96039.00
2023-05-19T19:54:49.854Z,96021.00
2023-05-19T19:57:52.128Z,96022.00
2023-05-19T20:01:14.768Z,96023.00
2023-05-19T20:04:06.629Z,96030.00
2023-05-19T20:07:00.703Z,96030.00
2023-05-19T20:09:54.912Z,96021.00
2023-05-19T20:12:50.172Z,96022.00
2023-05-19T20:15:46.666Z,96018.00
2023-05-19T20:18:54.459Z,96013.00
2023-05-19T20:21:49.608Z,96016.00
2023-05-19T20:24:39.828Z,96023.00
2023-05-19T20:27:26.217Z,96022.00
2023-05-19T20:30:14.464Z,96021.00
2023-05-19T20:33:06.118Z,96023.00
2023-05-19T20:35:52.368Z,96017.00
2023-05-19T20:38:55.715Z,96009.00
2023-05-19T20:41:45.310Z,96014.00
2023-05-19T20:44:35.367Z,96009.00
2023-05-19T20:47:28.304Z,96000.00
2023-05-19T20:50:17.552Z,96001.00
2023-05-19T20:53:15.882Z,95997.00
2023-05-19T20:56:07.906Z,95993.00
2023-05-19T20:59:03.557Z,95998.00
2023-05-19T21:01:49.757Z,95987.00
2023-05-19T21:04:46.154Z,95988.00
2023-05-19T21:07:35.215Z,95987.00
2023-05-19T21:10:24.041Z,95986.00
2023-05-19T21:13:12.305Z,95983.00
2023-05-19T21:15:59.798Z,95988.00
2023-05-19T21:18:49.547Z,95981.00
2023-05-19T21:21:36.273Z,95981.00
2023-05-19T21:24:33.216Z,95982.00
2023-05-19T21:27:21.931Z,95971.00
2023-05-19T21:30:34.824Z,95983.00
2023-05-19T21:33:25.334Z,95982.00
2023-05-19T21:36:11.371Z,95982.00
2023-05-19T21:38:57.373Z,95974.00
2023-05-19T21:41:46.349Z,95979.00
2023-05-19T21:44:39.172Z,95970.00
2023-05-19T21:47:29.984Z,95977.00
2023-05-19T21:50:17.552Z,95971.00
2023-05-19T21:53:04.076Z,95972.00
2023-05-19T21:55:52.108Z,95979.00
2023-05-19T21:58:45.171Z,95962.00
2023-05-19T22:01:31.256Z,95965.00
2023-05-19T22:04:18.742Z,95964.00
2023-05-19T22:07:06.884Z,95970.00
2023-05-19T22:09:53.989Z,95963.00
2023-05-19T22:12:44.280Z,95966.00
2023-05-19T22:15:35.113Z,95950.00
2023-05-19T22:18:26.593Z,95958.00
2023-05-19T22:21:12.629Z,95957.00
2023-05-19T22:23:58.666Z,95954.00
2023-05-19T22:26:46.993Z,95953.00
2023-05-19T22:29:33.023Z,95952.00
2023-05-19T22:32:21.523Z,95953.00
2023-05-19T22:35:08.341Z,95958.00
2023-05-19T22:37:54.538Z,95961.00
2023-05-19T22:40:39.993Z,95956.00
2023-05-19T22:43:26.220Z,95962.00
2023-05-19T22:46:12.664Z,95958.00
2023-05-19T22:48:58.558Z,95953.00
2023-05-19T22:51:44.456Z,95941.00
2023-05-19T22:54:31.899Z,95951.00
2023-05-19T22:57:17.844Z,95949.00
2023-05-19T23:00:07.621Z,95942.00
2023-05-19T23:02:53.793Z,95939.00
2023-05-19T23:05:40.555Z,95935.00
2023-05-19T23:08:26.893Z,95933.00
2023-05-19T23:11:13.021Z,95944.00
2023-05-19T23:13:59.227Z,95939.00
2023-05-19T23:16:46.453Z,95927.00
2023-05-19T23:19:33.270Z,95928.00
2023-05-19T23:22:19.063Z,95921.00
2023-05-19T23:25:07.699Z,95919.00
2023-05-19T23:27:54.636Z,95916.00
2023-05-19T23:30:40.509Z,95916.00
2023-05-19T23:33:26.580Z,95915.00
2023-05-19T23:36:12.696Z,95916.00
2023-05-19T23:39:00.123Z,95911.00
2023-05-19T23:41:51.790Z,95916.00
2023-05-19T23:44:38.231Z,95920.00
2023-05-19T23:47:24.044Z,95916.00
2023-05-19T23:50:10.116Z,95920.00
2023-05-19T23:52:56.156Z,95917.00
2023-05-19T23:55:42.797Z,95915.00
2023-05-19T23:58:28.524Z,95916.00
